Bulape Airport


Codes: FZUL/
Name: Bulape Airport
City: Bulape
Country: Congo [DRC]
Elevation: 1640 ft.

Photos at Bulape Airport


   Photos courtesy of SpottingLog. You can add your own sightings and photos by signing up for a free trial today.



No photos found.

Weather at Bulape Airport


Time (UTC)DescriptionTempratureWindCloud coverageVisibilityPressureHumidity
16-Jun-2024 12:00Broken Clouds32°C4 mph, S83%10000m1011hPa19%
16-Jun-2024 15:00Broken Clouds32°C2 mph, S73%10000m1009hPa20%
16-Jun-2024 18:00Broken Clouds24°C0 mph, SE52%10000m1011hPa36%
16-Jun-2024 21:00Few Clouds22°C0 mph, S19%10000m1012hPa38%
17-Jun-2024 00:00Few Clouds19°C2 mph, SE17%10000m1012hPa45%
17-Jun-2024 03:00Scattered Clouds18°C0 mph, S25%10000m1013hPa49%
17-Jun-2024 06:00Broken Clouds20°C0 mph, S62%10000m1015hPa48%
17-Jun-2024 09:00Overcast Clouds30°C2 mph, E100%10000m1014hPa25%
17-Jun-2024 12:00Overcast Clouds35°C2 mph, NE97%10000m1010hPa19%
17-Jun-2024 15:00Scattered Clouds33°C2 mph, NE38%10000m1009hPa21%
17-Jun-2024 18:00Few Clouds24°C2 mph, NE19%10000m1011hPa39%
17-Jun-2024 21:00Clear Sky22°C0 mph, N1%10000m1012hPa41%
18-Jun-2024 00:00Clear Sky21°C2 mph, S1%10000m1011hPa45%
18-Jun-2024 03:00Clear Sky19°C2 mph, S1%10000m1011hPa51%
18-Jun-2024 06:00Clear Sky22°C0 mph, NE0%10000m1013hPa48%
18-Jun-2024 09:00Clear Sky33°C0 mph, SE0%10000m1013hPa25%
18-Jun-2024 12:00Clear Sky36°C2 mph, SE0%10000m1009hPa19%
18-Jun-2024 15:00Clear Sky34°C2 mph, E1%10000m1008hPa21%
18-Jun-2024 18:00Clear Sky25°C2 mph, E3%10000m1010hPa40%
18-Jun-2024 21:00Clear Sky23°C0 mph, NW4%10000m1011hPa42%
19-Jun-2024 00:00Clear Sky21°C2 mph, S2%10000m1010hPa47%
19-Jun-2024 03:00Clear Sky20°C2 mph, S4%10000m1010hPa51%
19-Jun-2024 06:00Clear Sky23°C0 mph, W5%10000m1012hPa47%
19-Jun-2024 09:00Clear Sky34°C0 mph, NW6%10000m1012hPa25%
19-Jun-2024 12:00Clear Sky38°C0 mph, SW7%10000m1008hPa18%
19-Jun-2024 15:00Few Clouds35°C0 mph, E11%10000m1006hPa20%
19-Jun-2024 18:00Few Clouds26°C0 mph, NE12%10000m1009hPa39%
19-Jun-2024 21:00Few Clouds24°C0 mph, E12%10000m1010hPa42%
20-Jun-2024 00:00Scattered Clouds22°C2 mph, SW27%10000m1010hPa46%
20-Jun-2024 03:00Broken Clouds20°C0 mph, SE71%10000m1010hPa51%
20-Jun-2024 06:00Broken Clouds23°C2 mph, NE75%10000m1012hPa48%
20-Jun-2024 09:00Few Clouds34°C2 mph, NE17%10000m1012hPa25%
20-Jun-2024 12:00Few Clouds38°C0 mph, NE20%10000m1008hPa19%
20-Jun-2024 15:00Scattered Clouds36°C2 mph, E28%10000m1007hPa21%
20-Jun-2024 18:00Scattered Clouds26°C2 mph, NE27%10000m1009hPa38%
20-Jun-2024 21:00Clear Sky24°C0 mph, NE3%10000m1010hPa42%
21-Jun-2024 00:00Clear Sky22°C0 mph, SE8%10000m1010hPa48%
21-Jun-2024 03:00Scattered Clouds21°C2 mph, E29%10000m1011hPa52%
21-Jun-2024 06:00Scattered Clouds24°C0 mph, SE45%10000m1013hPa48%
21-Jun-2024 09:00Overcast Clouds35°C2 mph, E89%10000m1012hPa24%